sensor_id;sensor_type;location;lat;lon;timestamp;P1;durP1;ratioP1;P2;durP2;ratioP2
10729;SDS011;5416;59.258;18.128;2023-03-21T00:00:38;2.77;;;2.67;;
10729;SDS011;5416;59.258;18.128;2023-03-21T00:03:07;2.97;;;2.87;;
10729;SDS011;5416;59.258;18.128;2023-03-21T00:05:38;2.83;;;2.73;;
10729;SDS011;5416;59.258;18.128;2023-03-21T00:08:05;2.70;;;2.60;;
10729;SDS011;5416;59.258;18.128;2023-03-21T00:10:32;3.00;;;2.90;;
10729;SDS011;5416;59.258;18.128;2023-03-21T00:13:00;2.97;;;2.87;;
10729;SDS011;5416;59.258;18.128;2023-03-21T00:15:27;2.97;;;2.87;;
10729;SDS011;5416;59.258;18.128;2023-03-21T00:17:54;3.00;;;2.90;;
10729;SDS011;5416;59.258;18.128;2023-03-21T00:20:28;3.23;;;3.13;;
10729;SDS011;5416;59.258;18.128;2023-03-21T00:22:58;3.17;;;3.07;;
10729;SDS011;5416;59.258;18.128;2023-03-21T00:25:25;2.90;;;2.80;;
10729;SDS011;5416;59.258;18.128;2023-03-21T00:27:53;2.77;;;2.67;;
10729;SDS011;5416;59.258;18.128;2023-03-21T00:30:20;2.67;;;2.57;;
10729;SDS011;5416;59.258;18.128;2023-03-21T00:32:48;2.83;;;2.73;;
10729;SDS011;5416;59.258;18.128;2023-03-21T00:35:15;3.27;;;3.17;;
10729;SDS011;5416;59.258;18.128;2023-03-21T00:37:44;2.93;;;2.83;;
10729;SDS011;5416;59.258;18.128;2023-03-21T00:40:11;2.93;;;2.83;;
10729;SDS011;5416;59.258;18.128;2023-03-21T00:42:39;2.80;;;2.70;;
10729;SDS011;5416;59.258;18.128;2023-03-21T00:45:07;2.70;;;2.60;;
10729;SDS011;5416;59.258;18.128;2023-03-21T00:47:34;3.00;;;2.90;;
10729;SDS011;5416;59.258;18.128;2023-03-21T00:50:03;3.17;;;3.07;;
10729;SDS011;5416;59.258;18.128;2023-03-21T00:52:31;2.67;;;2.57;;
10729;SDS011;5416;59.258;18.128;2023-03-21T00:55:00;3.37;;;3.27;;
10729;SDS011;5416;59.258;18.128;2023-03-21T00:57:28;2.83;;;2.73;;
10729;SDS011;5416;59.258;18.128;2023-03-21T00:59:55;3.07;;;2.97;;
10729;SDS011;5416;59.258;18.128;2023-03-21T01:02:23;3.27;;;3.17;;
10729;SDS011;5416;59.258;18.128;2023-03-21T01:04:50;2.57;;;2.47;;
10729;SDS011;5416;59.258;18.128;2023-03-21T01:07:18;2.67;;;2.57;;
10729;SDS011;5416;59.258;18.128;2023-03-21T01:09:45;2.90;;;2.80;;
10729;SDS011;5416;59.258;18.128;2023-03-21T01:12:14;3.10;;;3.00;;
10729;SDS011;5416;59.258;18.128;2023-03-21T01:14:41;3.10;;;3.00;;
10729;SDS011;5416;59.258;18.128;2023-03-21T01:17:08;3.00;;;2.90;;
10729;SDS011;5416;59.258;18.128;2023-03-21T01:19:36;2.93;;;2.83;;
10729;SDS011;5416;59.258;18.128;2023-03-21T01:22:03;2.87;;;2.77;;
10729;SDS011;5416;59.258;18.128;2023-03-21T01:24:30;3.67;;;3.57;;
10729;SDS011;5416;59.258;18.128;2023-03-21T01:26:58;3.13;;;3.03;;
10729;SDS011;5416;59.258;18.128;2023-03-21T01:29:26;3.17;;;3.07;;
10729;SDS011;5416;59.258;18.128;2023-03-21T01:31:54;3.30;;;3.20;;
10729;SDS011;5416;59.258;18.128;2023-03-21T01:34:21;2.97;;;2.87;;
10729;SDS011;5416;59.258;18.128;2023-03-21T01:36:48;3.00;;;2.90;;
10729;SDS011;5416;59.258;18.128;2023-03-21T01:39:16;2.97;;;2.87;;
10729;SDS011;5416;59.258;18.128;2023-03-21T01:41:43;2.97;;;2.87;;
10729;SDS011;5416;59.258;18.128;2023-03-21T01:44:13;3.07;;;2.97;;
10729;SDS011;5416;59.258;18.128;2023-03-21T01:46:42;2.93;;;2.83;;
10729;SDS011;5416;59.258;18.128;2023-03-21T01:49:14;2.70;;;2.60;;
10729;SDS011;5416;59.258;18.128;2023-03-21T01:51:43;2.73;;;2.63;;
10729;SDS011;5416;59.258;18.128;2023-03-21T01:54:12;3.23;;;3.13;;
10729;SDS011;5416;59.258;18.128;2023-03-21T01:56:41;3.03;;;2.93;;
10729;SDS011;5416;59.258;18.128;2023-03-21T01:59:11;2.60;;;2.50;;
10729;SDS011;5416;59.258;18.128;2023-03-21T02:01:42;2.90;;;2.80;;
10729;SDS011;5416;59.258;18.128;2023-03-21T02:04:10;3.00;;;2.90;;
10729;SDS011;5416;59.258;18.128;2023-03-21T02:06:40;2.60;;;2.50;;
10729;SDS011;5416;59.258;18.128;2023-03-21T02:09:10;3.10;;;3.00;;
10729;SDS011;5416;59.258;18.128;2023-03-21T02:11:38;3.17;;;3.07;;
10729;SDS011;5416;59.258;18.128;2023-03-21T02:14:05;2.80;;;2.70;;
10729;SDS011;5416;59.258;18.128;2023-03-21T02:16:38;3.17;;;3.07;;
10729;SDS011;5416;59.258;18.128;2023-03-21T02:19:23;2.63;;;2.53;;
10729;SDS011;5416;59.258;18.128;2023-03-21T02:24:49;3.17;;;3.07;;
10729;SDS011;5416;59.258;18.128;2023-03-21T02:27:22;2.73;;;2.63;;
10729;SDS011;5416;59.258;18.128;2023-03-21T02:32:37;2.63;;;2.53;;
10729;SDS011;5416;59.258;18.128;2023-03-21T02:35:13;2.87;;;2.77;;
10729;SDS011;5416;59.258;18.128;2023-03-21T02:37:44;2.90;;;2.80;;
10729;SDS011;5416;59.258;18.128;2023-03-21T02:40:13;2.93;;;2.83;;
10729;SDS011;5416;59.258;18.128;2023-03-21T02:42:44;2.93;;;2.83;;
10729;SDS011;5416;59.258;18.128;2023-03-21T02:45:15;2.57;;;2.47;;
10729;SDS011;5416;59.258;18.128;2023-03-21T02:47:43;2.50;;;2.40;;
10729;SDS011;5416;59.258;18.128;2023-03-21T02:50:14;3.00;;;2.90;;
10729;SDS011;5416;59.258;18.128;2023-03-21T02:52:44;3.23;;;3.13;;
10729;SDS011;5416;59.258;18.128;2023-03-21T02:55:14;2.87;;;2.77;;
10729;SDS011;5416;59.258;18.128;2023-03-21T02:57:43;3.23;;;3.13;;
10729;SDS011;5416;59.258;18.128;2023-03-21T03:00:11;2.50;;;2.40;;
10729;SDS011;5416;59.258;18.128;2023-03-21T03:02:39;3.30;;;3.20;;
10729;SDS011;5416;59.258;18.128;2023-03-21T03:05:11;2.93;;;2.83;;
10729;SDS011;5416;59.258;18.128;2023-03-21T03:07:39;3.23;;;3.13;;
10729;SDS011;5416;59.258;18.128;2023-03-21T03:10:23;2.80;;;2.70;;
10729;SDS011;5416;59.258;18.128;2023-03-21T03:12:56;3.10;;;3.00;;
10729;SDS011;5416;59.258;18.128;2023-03-21T03:15:29;3.17;;;3.07;;
10729;SDS011;5416;59.258;18.128;2023-03-21T03:18:05;2.70;;;2.60;;
10729;SDS011;5416;59.258;18.128;2023-03-21T03:20:38;3.20;;;3.10;;
10729;SDS011;5416;59.258;18.128;2023-03-21T03:23:12;2.50;;;2.40;;
10729;SDS011;5416;59.258;18.128;2023-03-21T03:25:43;2.90;;;2.80;;
10729;SDS011;5416;59.258;18.128;2023-03-21T03:28:14;2.70;;;2.60;;
10729;SDS011;5416;59.258;18.128;2023-03-21T03:30:42;3.00;;;2.90;;
10729;SDS011;5416;59.258;18.128;2023-03-21T03:33:10;2.60;;;2.50;;
10729;SDS011;5416;59.258;18.128;2023-03-21T03:35:41;3.17;;;3.07;;
10729;SDS011;5416;59.258;18.128;2023-03-21T03:38:08;2.90;;;2.80;;
10729;SDS011;5416;59.258;18.128;2023-03-21T03:40:38;3.00;;;2.90;;
10729;SDS011;5416;59.258;18.128;2023-03-21T03:43:08;3.03;;;2.93;;
10729;SDS011;5416;59.258;18.128;2023-03-21T03:45:37;2.60;;;2.50;;
10729;SDS011;5416;59.258;18.128;2023-03-21T03:48:06;2.80;;;2.70;;
10729;SDS011;5416;59.258;18.128;2023-03-21T03:50:38;3.00;;;2.90;;
10729;SDS011;5416;59.258;18.128;2023-03-21T03:53:10;2.90;;;2.80;;
10729;SDS011;5416;59.258;18.128;2023-03-21T03:55:41;2.73;;;2.63;;
10729;SDS011;5416;59.258;18.128;2023-03-21T03:58:11;2.83;;;2.73;;
10729;SDS011;5416;59.258;18.128;2023-03-21T04:00:38;2.70;;;2.60;;
10729;SDS011;5416;59.258;18.128;2023-03-21T04:03:05;2.93;;;2.83;;
10729;SDS011;5416;59.258;18.128;2023-03-21T04:05:33;2.93;;;2.83;;
10729;SDS011;5416;59.258;18.128;2023-03-21T04:08:01;2.60;;;2.50;;
10729;SDS011;5416;59.258;18.128;2023-03-21T04:10:28;3.00;;;2.90;;
10729;SDS011;5416;59.258;18.128;2023-03-21T04:12:55;2.87;;;2.77;;
10729;SDS011;5416;59.258;18.128;2023-03-21T04:15:24;3.17;;;3.07;;
10729;SDS011;5416;59.258;18.128;2023-03-21T04:17:51;2.87;;;2.77;;
10729;SDS011;5416;59.258;18.128;2023-03-21T04:20:19;3.30;;;3.20;;
10729;SDS011;5416;59.258;18.128;2023-03-21T04:22:46;2.67;;;2.57;;
10729;SDS011;5416;59.258;18.128;2023-03-21T04:25:13;2.63;;;2.53;;
10729;SDS011;5416;59.258;18.128;2023-03-21T04:27:41;2.83;;;2.73;;
10729;SDS011;5416;59.258;18.128;2023-03-21T04:30:11;2.50;;;2.40;;
10729;SDS011;5416;59.258;18.128;2023-03-21T04:32:40;3.20;;;3.10;;
10729;SDS011;5416;59.258;18.128;2023-03-21T04:35:08;3.20;;;3.10;;
10729;SDS011;5416;59.258;18.128;2023-03-21T04:37:36;2.77;;;2.67;;
10729;SDS011;5416;59.258;18.128;2023-03-21T04:40:04;3.27;;;3.17;;
10729;SDS011;5416;59.258;18.128;2023-03-21T04:42:33;2.50;;;2.40;;
10729;SDS011;5416;59.258;18.128;2023-03-21T04:45:00;2.90;;;2.80;;
10729;SDS011;5416;59.258;18.128;2023-03-21T04:47:28;3.03;;;2.93;;
10729;SDS011;5416;59.258;18.128;2023-03-21T04:49:57;3.00;;;2.90;;
10729;SDS011;5416;59.258;18.128;2023-03-21T04:52:24;3.00;;;2.90;;
10729;SDS011;5416;59.258;18.128;2023-03-21T04:54:51;3.10;;;3.00;;
10729;SDS011;5416;59.258;18.128;2023-03-21T04:57:19;2.80;;;2.70;;
10729;SDS011;5416;59.258;18.128;2023-03-21T04:59:46;3.17;;;3.07;;
10729;SDS011;5416;59.258;18.128;2023-03-21T05:02:14;2.90;;;2.80;;
10729;SDS011;5416;59.258;18.128;2023-03-21T05:04:41;2.70;;;2.60;;
10729;SDS011;5416;59.258;18.128;2023-03-21T05:07:10;2.90;;;2.80;;
10729;SDS011;5416;59.258;18.128;2023-03-21T05:09:37;2.93;;;2.83;;
10729;SDS011;5416;59.258;18.128;2023-03-21T05:12:04;3.23;;;3.13;;
10729;SDS011;5416;59.258;18.128;2023-03-21T05:14:32;2.83;;;2.73;;
10729;SDS011;5416;59.258;18.128;2023-03-21T05:16:59;2.67;;;2.57;;
10729;SDS011;5416;59.258;18.128;2023-03-21T05:19:29;3.03;;;2.93;;
10729;SDS011;5416;59.258;18.128;2023-03-21T05:22:00;2.57;;;2.47;;
10729;SDS011;5416;59.258;18.128;2023-03-21T05:24:30;2.83;;;2.73;;
10729;SDS011;5416;59.258;18.128;2023-03-21T05:26:58;2.67;;;2.57;;
10729;SDS011;5416;59.258;18.128;2023-03-21T05:29:27;2.80;;;2.70;;
10729;SDS011;5416;59.258;18.128;2023-03-21T05:31:54;2.93;;;2.83;;
10729;SDS011;5416;59.258;18.128;2023-03-21T05:34:22;2.97;;;2.87;;
10729;SDS011;5416;59.258;18.128;2023-03-21T05:36:49;3.00;;;2.90;;
10729;SDS011;5416;59.258;18.128;2023-03-21T05:39:17;2.57;;;2.47;;
10729;SDS011;5416;59.258;18.128;2023-03-21T05:41:46;3.07;;;2.97;;
10729;SDS011;5416;59.258;18.128;2023-03-21T05:44:13;3.17;;;3.07;;
10729;SDS011;5416;59.258;18.128;2023-03-21T05:46:40;2.80;;;2.70;;
10729;SDS011;5416;59.258;18.128;2023-03-21T05:49:08;2.80;;;2.70;;
10729;SDS011;5416;59.258;18.128;2023-03-21T05:51:36;2.80;;;2.70;;
10729;SDS011;5416;59.258;18.128;2023-03-21T05:54:03;2.83;;;2.73;;
10729;SDS011;5416;59.258;18.128;2023-03-21T05:56:31;2.97;;;2.87;;
10729;SDS011;5416;59.258;18.128;2023-03-21T05:59:00;2.60;;;2.50;;
10729;SDS011;5416;59.258;18.128;2023-03-21T06:01:27;3.03;;;2.93;;
10729;SDS011;5416;59.258;18.128;2023-03-21T06:03:55;2.60;;;2.50;;
10729;SDS011;5416;59.258;18.128;2023-03-21T06:06:22;2.83;;;2.73;;
10729;SDS011;5416;59.258;18.128;2023-03-21T06:08:49;2.60;;;2.50;;
10729;SDS011;5416;59.258;18.128;2023-03-21T06:11:19;2.60;;;2.50;;
10729;SDS011;5416;59.258;18.128;2023-03-21T06:13:49;2.90;;;2.80;;
10729;SDS011;5416;59.258;18.128;2023-03-21T06:16:17;2.90;;;2.80;;
10729;SDS011;5416;59.258;18.128;2023-03-21T06:18:45;2.60;;;2.50;;
10729;SDS011;5416;59.258;18.128;2023-03-21T06:21:12;2.87;;;2.77;;
10729;SDS011;5416;59.258;18.128;2023-03-21T06:23:40;2.87;;;2.77;;
10729;SDS011;5416;59.258;18.128;2023-03-21T06:26:07;3.17;;;3.07;;
10729;SDS011;5416;59.258;18.128;2023-03-21T06:28:34;2.60;;;2.50;;
10729;SDS011;5416;59.258;18.128;2023-03-21T06:31:02;2.70;;;2.60;;
10729;SDS011;5416;59.258;18.128;2023-03-21T06:33:30;2.87;;;2.77;;
10729;SDS011;5416;59.258;18.128;2023-03-21T06:35:58;2.60;;;2.50;;
10729;SDS011;5416;59.258;18.128;2023-03-21T06:38:25;3.00;;;2.90;;
10729;SDS011;5416;59.258;18.128;2023-03-21T06:40:52;2.80;;;2.70;;
10729;SDS011;5416;59.258;18.128;2023-03-21T06:43:20;2.80;;;2.70;;
10729;SDS011;5416;59.258;18.128;2023-03-21T06:45:47;2.90;;;2.80;;
10729;SDS011;5416;59.258;18.128;2023-03-21T06:48:14;2.70;;;2.60;;
10729;SDS011;5416;59.258;18.128;2023-03-21T06:50:43;3.07;;;2.97;;
10729;SDS011;5416;59.258;18.128;2023-03-21T06:53:10;3.20;;;3.10;;
10729;SDS011;5416;59.258;18.128;2023-03-21T06:55:37;2.80;;;2.70;;
10729;SDS011;5416;59.258;18.128;2023-03-21T06:58:05;3.07;;;2.97;;
10729;SDS011;5416;59.258;18.128;2023-03-21T07:00:32;2.93;;;2.83;;
10729;SDS011;5416;59.258;18.128;2023-03-21T07:03:00;2.53;;;2.43;;
10729;SDS011;5416;59.258;18.128;2023-03-21T07:05:27;3.40;;;3.30;;
10729;SDS011;5416;59.258;18.128;2023-03-21T07:08:05;2.87;;;2.77;;
10729;SDS011;5416;59.258;18.128;2023-03-21T07:10:37;2.93;;;2.83;;
10729;SDS011;5416;59.258;18.128;2023-03-21T07:13:04;2.80;;;2.70;;
10729;SDS011;5416;59.258;18.128;2023-03-21T07:15:32;3.00;;;2.90;;
10729;SDS011;5416;59.258;18.128;2023-03-21T07:18:02;2.93;;;2.83;;
10729;SDS011;5416;59.258;18.128;2023-03-21T07:20:29;2.93;;;2.83;;
10729;SDS011;5416;59.258;18.128;2023-03-21T07:22:56;2.70;;;2.60;;
10729;SDS011;5416;59.258;18.128;2023-03-21T07:25:26;2.90;;;2.80;;
10729;SDS011;5416;59.258;18.128;2023-03-21T07:27:53;3.23;;;3.13;;
10729;SDS011;5416;59.258;18.128;2023-03-21T07:30:21;3.00;;;2.90;;
10729;SDS011;5416;59.258;18.128;2023-03-21T07:32:51;2.87;;;2.77;;
10729;SDS011;5416;59.258;18.128;2023-03-21T07:35:18;2.90;;;2.80;;
10729;SDS011;5416;59.258;18.128;2023-03-21T07:37:46;2.73;;;2.63;;
10729;SDS011;5416;59.258;18.128;2023-03-21T07:40:13;3.07;;;2.97;;
10729;SDS011;5416;59.258;18.128;2023-03-21T07:42:42;3.00;;;2.90;;
10729;SDS011;5416;59.258;18.128;2023-03-21T07:45:10;3.23;;;3.13;;
10729;SDS011;5416;59.258;18.128;2023-03-21T07:47:39;2.50;;;2.40;;
10729;SDS011;5416;59.258;18.128;2023-03-21T07:50:10;3.10;;;3.00;;
10729;SDS011;5416;59.258;18.128;2023-03-21T07:52:37;2.50;;;2.40;;
10729;SDS011;5416;59.258;18.128;2023-03-21T07:55:04;3.10;;;3.00;;
10729;SDS011;5416;59.258;18.128;2023-03-21T07:57:32;2.80;;;2.70;;
10729;SDS011;5416;59.258;18.128;2023-03-21T08:00:01;3.13;;;3.03;;
10729;SDS011;5416;59.258;18.128;2023-03-21T08:02:29;3.07;;;2.97;;
10729;SDS011;5416;59.258;18.128;2023-03-21T08:04:56;3.10;;;3.00;;
10729;SDS011;5416;59.258;18.128;2023-03-21T08:07:23;2.77;;;2.67;;
10729;SDS011;5416;59.258;18.128;2023-03-21T08:09:52;3.10;;;3.00;;
10729;SDS011;5416;59.258;18.128;2023-03-21T08:12:20;3.00;;;2.90;;
10729;SDS011;5416;59.258;18.128;2023-03-21T08:14:47;2.70;;;2.60;;
10729;SDS011;5416;59.258;18.128;2023-03-21T08:17:16;2.60;;;2.50;;
10729;SDS011;5416;59.258;18.128;2023-03-21T08:19:43;2.80;;;2.70;;
10729;SDS011;5416;59.258;18.128;2023-03-21T08:22:11;3.47;;;3.37;;
10729;SDS011;5416;59.258;18.128;2023-03-21T08:24:38;3.10;;;3.00;;
10729;SDS011;5416;59.258;18.128;2023-03-21T08:27:05;2.70;;;2.60;;
10729;SDS011;5416;59.258;18.128;2023-03-21T08:29:33;2.87;;;2.77;;
10729;SDS011;5416;59.258;18.128;2023-03-21T08:32:04;3.27;;;3.17;;
10729;SDS011;5416;59.258;18.128;2023-03-21T08:34:33;2.77;;;2.67;;
10729;SDS011;5416;59.258;18.128;2023-03-21T08:37:00;3.17;;;3.07;;
10729;SDS011;5416;59.258;18.128;2023-03-21T08:39:28;2.77;;;2.67;;
10729;SDS011;5416;59.258;18.128;2023-03-21T08:41:55;3.13;;;3.03;;
10729;SDS011;5416;59.258;18.128;2023-03-21T08:44:23;3.37;;;3.27;;
10729;SDS011;5416;59.258;18.128;2023-03-21T08:46:51;3.60;;;3.50;;
10729;SDS011;5416;59.258;18.128;2023-03-21T08:49:18;2.70;;;2.60;;
10729;SDS011;5416;59.258;18.128;2023-03-21T08:51:47;3.30;;;3.20;;
10729;SDS011;5416;59.258;18.128;2023-03-21T08:54:18;3.10;;;3.00;;
10729;SDS011;5416;59.258;18.128;2023-03-21T08:56:45;3.47;;;3.37;;
10729;SDS011;5416;59.258;18.128;2023-03-21T08:59:13;3.10;;;3.00;;
10729;SDS011;5416;59.258;18.128;2023-03-21T09:01:40;3.47;;;3.37;;
10729;SDS011;5416;59.258;18.128;2023-03-21T09:04:07;3.17;;;3.07;;
10729;SDS011;5416;59.258;18.128;2023-03-21T09:06:36;3.90;;;3.80;;
10729;SDS011;5416;59.258;18.128;2023-03-21T09:09:06;3.80;;;3.70;;
10729;SDS011;5416;59.258;18.128;2023-03-21T09:11:33;3.60;;;3.50;;
10729;SDS011;5416;59.258;18.128;2023-03-21T09:14:01;3.33;;;3.23;;
10729;SDS011;5416;59.258;18.128;2023-03-21T09:16:28;3.20;;;3.10;;
10729;SDS011;5416;59.258;18.128;2023-03-21T09:18:56;3.27;;;3.17;;
10729;SDS011;5416;59.258;18.128;2023-03-21T09:21:23;4.10;;;4.00;;
10729;SDS011;5416;59.258;18.128;2023-03-21T09:23:52;3.30;;;3.20;;
10729;SDS011;5416;59.258;18.128;2023-03-21T09:26:24;3.63;;;3.53;;
10729;SDS011;5416;59.258;18.128;2023-03-21T09:28:53;3.60;;;3.50;;
10729;SDS011;5416;59.258;18.128;2023-03-21T09:31:20;3.93;;;3.83;;
10729;SDS011;5416;59.258;18.128;2023-03-21T09:33:48;3.63;;;3.53;;
10729;SDS011;5416;59.258;18.128;2023-03-21T09:36:16;3.20;;;3.10;;
10729;SDS011;5416;59.258;18.128;2023-03-21T09:38:46;3.77;;;3.67;;
10729;SDS011;5416;59.258;18.128;2023-03-21T09:41:17;3.63;;;3.53;;
10729;SDS011;5416;59.258;18.128;2023-03-21T09:43:50;3.67;;;3.57;;
10729;SDS011;5416;59.258;18.128;2023-03-21T09:46:23;3.60;;;3.50;;
10729;SDS011;5416;59.258;18.128;2023-03-21T09:48:55;3.40;;;3.30;;
10729;SDS011;5416;59.258;18.128;2023-03-21T09:51:24;3.77;;;3.67;;
10729;SDS011;5416;59.258;18.128;2023-03-21T09:53:53;3.70;;;3.60;;
10729;SDS011;5416;59.258;18.128;2023-03-21T09:56:21;2.87;;;2.77;;
10729;SDS011;5416;59.258;18.128;2023-03-21T09:58:53;3.17;;;3.07;;
10729;SDS011;5416;59.258;18.128;2023-03-21T10:01:24;3.77;;;3.67;;
10729;SDS011;5416;59.258;18.128;2023-03-21T10:03:54;3.37;;;3.27;;
10729;SDS011;5416;59.258;18.128;2023-03-21T10:06:21;3.53;;;3.43;;
10729;SDS011;5416;59.258;18.128;2023-03-21T10:08:53;3.13;;;3.03;;
10729;SDS011;5416;59.258;18.128;2023-03-21T10:11:22;3.63;;;3.53;;
10729;SDS011;5416;59.258;18.128;2023-03-21T10:13:53;3.37;;;3.27;;
10729;SDS011;5416;59.258;18.128;2023-03-21T10:16:23;3.20;;;3.10;;
10729;SDS011;5416;59.258;18.128;2023-03-21T10:18:52;3.57;;;3.47;;
10729;SDS011;5416;59.258;18.128;2023-03-21T10:21:20;3.73;;;3.63;;
10729;SDS011;5416;59.258;18.128;2023-03-21T10:23:48;3.50;;;3.40;;
10729;SDS011;5416;59.258;18.128;2023-03-21T10:26:16;3.50;;;3.40;;
10729;SDS011;5416;59.258;18.128;2023-03-21T10:28:45;3.10;;;3.00;;
10729;SDS011;5416;59.258;18.128;2023-03-21T10:31:15;3.87;;;3.77;;
10729;SDS011;5416;59.258;18.128;2023-03-21T10:33:45;4.00;;;3.90;;
10729;SDS011;5416;59.258;18.128;2023-03-21T10:36:14;3.90;;;3.80;;
10729;SDS011;5416;59.258;18.128;2023-03-21T10:38:43;3.33;;;3.23;;
10729;SDS011;5416;59.258;18.128;2023-03-21T10:41:11;3.57;;;3.47;;
10729;SDS011;5416;59.258;18.128;2023-03-21T10:43:39;3.10;;;3.00;;
10729;SDS011;5416;59.258;18.128;2023-03-21T10:46:08;3.63;;;3.53;;
10729;SDS011;5416;59.258;18.128;2023-03-21T10:48:39;3.93;;;3.83;;
10729;SDS011;5416;59.258;18.128;2023-03-21T10:51:11;3.70;;;3.60;;
10729;SDS011;5416;59.258;18.128;2023-03-21T10:53:43;3.67;;;3.57;;
10729;SDS011;5416;59.258;18.128;2023-03-21T10:56:11;3.80;;;3.70;;
10729;SDS011;5416;59.258;18.128;2023-03-21T10:58:40;4.00;;;3.90;;
10729;SDS011;5416;59.258;18.128;2023-03-21T11:01:09;3.50;;;3.40;;
10729;SDS011;5416;59.258;18.128;2023-03-21T11:03:41;3.57;;;3.47;;
10729;SDS011;5416;59.258;18.128;2023-03-21T11:06:11;3.40;;;3.30;;
10729;SDS011;5416;59.258;18.128;2023-03-21T11:08:39;3.50;;;3.40;;
10729;SDS011;5416;59.258;18.128;2023-03-21T11:11:08;3.60;;;3.50;;
10729;SDS011;5416;59.258;18.128;2023-03-21T11:13:37;3.67;;;3.57;;
10729;SDS011;5416;59.258;18.128;2023-03-21T11:16:06;3.60;;;3.50;;
10729;SDS011;5416;59.258;18.128;2023-03-21T11:18:40;3.77;;;3.67;;
10729;SDS011;5416;59.258;18.128;2023-03-21T11:21:08;3.60;;;3.50;;
10729;SDS011;5416;59.258;18.128;2023-03-21T11:23:37;3.70;;;3.60;;
10729;SDS011;5416;59.258;18.128;2023-03-21T11:26:08;4.13;;;4.03;;
10729;SDS011;5416;59.258;18.128;2023-03-21T11:28:36;4.20;;;4.10;;
10729;SDS011;5416;59.258;18.128;2023-03-21T11:31:04;4.00;;;3.90;;
10729;SDS011;5416;59.258;18.128;2023-03-21T11:33:34;3.67;;;3.57;;
10729;SDS011;5416;59.258;18.128;2023-03-21T11:36:04;3.50;;;3.40;;
10729;SDS011;5416;59.258;18.128;2023-03-21T11:38:35;3.47;;;3.37;;
10729;SDS011;5416;59.258;18.128;2023-03-21T11:41:03;3.60;;;3.50;;
10729;SDS011;5416;59.258;18.128;2023-03-21T11:43:33;3.27;;;3.17;;
10729;SDS011;5416;59.258;18.128;2023-03-21T11:46:04;3.90;;;3.80;;
10729;SDS011;5416;59.258;18.128;2023-03-21T11:48:32;3.83;;;3.73;;
10729;SDS011;5416;59.258;18.128;2023-03-21T11:51:05;4.10;;;4.00;;
10729;SDS011;5416;59.258;18.128;2023-03-21T11:53:36;3.97;;;3.87;;
10729;SDS011;5416;59.258;18.128;2023-03-21T11:56:15;3.90;;;3.80;;
10729;SDS011;5416;59.258;18.128;2023-03-21T11:58:50;3.30;;;3.20;;
10729;SDS011;5416;59.258;18.128;2023-03-21T12:01:22;4.23;;;4.13;;
10729;SDS011;5416;59.258;18.128;2023-03-21T12:04:04;3.43;;;3.33;;
10729;SDS011;5416;59.258;18.128;2023-03-21T12:06:36;3.90;;;3.80;;
10729;SDS011;5416;59.258;18.128;2023-03-21T12:09:13;4.03;;;3.93;;
10729;SDS011;5416;59.258;18.128;2023-03-21T12:11:48;4.30;;;4.20;;
10729;SDS011;5416;59.258;18.128;2023-03-21T12:14:20;4.33;;;4.23;;
10729;SDS011;5416;59.258;18.128;2023-03-21T12:16:52;3.90;;;3.80;;
10729;SDS011;5416;59.258;18.128;2023-03-21T12:19:36;3.53;;;3.43;;
10729;SDS011;5416;59.258;18.128;2023-03-21T12:22:11;3.73;;;3.63;;
10729;SDS011;5416;59.258;18.128;2023-03-21T12:24:44;4.13;;;4.03;;
10729;SDS011;5416;59.258;18.128;2023-03-21T12:27:16;3.83;;;3.73;;
10729;SDS011;5416;59.258;18.128;2023-03-21T12:29:48;3.57;;;3.47;;
10729;SDS011;5416;59.258;18.128;2023-03-21T12:32:29;4.33;;;4.23;;
10729;SDS011;5416;59.258;18.128;2023-03-21T12:35:12;3.57;;;3.47;;
10729;SDS011;5416;59.258;18.128;2023-03-21T12:37:47;3.80;;;3.70;;
10729;SDS011;5416;59.258;18.128;2023-03-21T12:40:21;3.50;;;3.40;;
10729;SDS011;5416;59.258;18.128;2023-03-21T12:42:59;4.17;;;4.07;;
10729;SDS011;5416;59.258;18.128;2023-03-21T12:45:30;3.83;;;3.73;;
10729;SDS011;5416;59.258;18.128;2023-03-21T12:48:10;4.00;;;3.90;;
10729;SDS011;5416;59.258;18.128;2023-03-21T12:50:39;4.10;;;4.00;;
10729;SDS011;5416;59.258;18.128;2023-03-21T12:53:13;4.07;;;3.97;;
10729;SDS011;5416;59.258;18.128;2023-03-21T12:55:42;4.30;;;4.20;;
10729;SDS011;5416;59.258;18.128;2023-03-21T12:58:10;3.87;;;3.77;;
10729;SDS011;5416;59.258;18.128;2023-03-21T13:00:43;3.97;;;3.87;;
10729;SDS011;5416;59.258;18.128;2023-03-21T13:03:11;3.70;;;3.60;;
10729;SDS011;5416;59.258;18.128;2023-03-21T13:05:42;3.43;;;3.33;;
10729;SDS011;5416;59.258;18.128;2023-03-21T13:08:13;4.20;;;4.10;;
10729;SDS011;5416;59.258;18.128;2023-03-21T13:10:42;3.37;;;3.27;;
10729;SDS011;5416;59.258;18.128;2023-03-21T13:13:11;3.63;;;3.53;;
10729;SDS011;5416;59.258;18.128;2023-03-21T13:15:44;4.17;;;4.07;;
10729;SDS011;5416;59.258;18.128;2023-03-21T13:18:16;3.80;;;3.70;;
10729;SDS011;5416;59.258;18.128;2023-03-21T13:20:46;3.87;;;3.77;;
10729;SDS011;5416;59.258;18.128;2023-03-21T13:23:16;3.80;;;3.70;;
10729;SDS011;5416;59.258;18.128;2023-03-21T13:25:44;3.43;;;3.33;;
10729;SDS011;5416;59.258;18.128;2023-03-21T13:28:16;3.43;;;3.33;;
10729;SDS011;5416;59.258;18.128;2023-03-21T13:30:43;3.90;;;3.80;;
10729;SDS011;5416;59.258;18.128;2023-03-21T13:33:12;4.03;;;3.93;;
10729;SDS011;5416;59.258;18.128;2023-03-21T13:35:41;4.30;;;4.20;;
10729;SDS011;5416;59.258;18.128;2023-03-21T13:38:09;3.47;;;3.37;;
10729;SDS011;5416;59.258;18.128;2023-03-21T13:40:39;3.37;;;3.27;;
10729;SDS011;5416;59.258;18.128;2023-03-21T13:45:50;3.90;;;3.80;;
10729;SDS011;5416;59.258;18.128;2023-03-21T13:48:24;3.77;;;3.67;;
10729;SDS011;5416;59.258;18.128;2023-03-21T13:50:58;3.90;;;3.80;;
10729;SDS011;5416;59.258;18.128;2023-03-21T13:53:29;3.53;;;3.43;;
10729;SDS011;5416;59.258;18.128;2023-03-21T13:56:00;3.57;;;3.47;;
10729;SDS011;5416;59.258;18.128;2023-03-21T13:58:33;3.40;;;3.30;;
10729;SDS011;5416;59.258;18.128;2023-03-21T14:01:17;4.20;;;4.10;;
10729;SDS011;5416;59.258;18.128;2023-03-21T14:03:47;3.80;;;3.70;;
10729;SDS011;5416;59.258;18.128;2023-03-21T14:06:15;3.57;;;3.47;;
10729;SDS011;5416;59.258;18.128;2023-03-21T14:08:45;3.53;;;3.43;;
10729;SDS011;5416;59.258;18.128;2023-03-21T14:11:15;4.07;;;3.97;;
10729;SDS011;5416;59.258;18.128;2023-03-21T14:13:43;4.43;;;4.33;;
10729;SDS011;5416;59.258;18.128;2023-03-21T14:16:12;3.53;;;3.43;;
10729;SDS011;5416;59.258;18.128;2023-03-21T14:18:41;3.37;;;3.27;;
10729;SDS011;5416;59.258;18.128;2023-03-21T14:21:13;3.70;;;3.60;;
10729;SDS011;5416;59.258;18.128;2023-03-21T14:23:41;3.60;;;3.50;;
10729;SDS011;5416;59.258;18.128;2023-03-21T14:26:09;3.90;;;3.80;;
10729;SDS011;5416;59.258;18.128;2023-03-21T14:28:45;3.90;;;3.80;;
10729;SDS011;5416;59.258;18.128;2023-03-21T14:31:14;3.60;;;3.50;;
10729;SDS011;5416;59.258;18.128;2023-03-21T14:33:44;4.20;;;4.10;;
10729;SDS011;5416;59.258;18.128;2023-03-21T14:36:14;4.30;;;4.20;;
10729;SDS011;5416;59.258;18.128;2023-03-21T14:38:42;3.63;;;3.53;;
10729;SDS011;5416;59.258;18.128;2023-03-21T14:41:18;3.83;;;3.73;;
10729;SDS011;5416;59.258;18.128;2023-03-21T14:44:00;3.87;;;3.77;;
10729;SDS011;5416;59.258;18.128;2023-03-21T14:46:28;3.90;;;3.80;;
10729;SDS011;5416;59.258;18.128;2023-03-21T14:49:08;3.43;;;3.33;;
10729;SDS011;5416;59.258;18.128;2023-03-21T14:51:35;3.63;;;3.53;;
10729;SDS011;5416;59.258;18.128;2023-03-21T14:54:03;4.10;;;4.00;;
10729;SDS011;5416;59.258;18.128;2023-03-21T14:56:31;3.63;;;3.53;;
10729;SDS011;5416;59.258;18.128;2023-03-21T14:59:02;3.53;;;3.43;;
10729;SDS011;5416;59.258;18.128;2023-03-21T15:01:30;3.30;;;3.20;;
10729;SDS011;5416;59.258;18.128;2023-03-21T15:03:59;3.97;;;3.87;;
10729;SDS011;5416;59.258;18.128;2023-03-21T15:06:27;4.03;;;3.93;;
10729;SDS011;5416;59.258;18.128;2023-03-21T15:08:55;3.50;;;3.40;;